Time;durP1;ratioP1;P1;durP2;ratioP2;P2;SDS_P1;SDS_P2;PMS_P1;PMS_P2;Temp;Humidity;BMP_temperature;BMP_pressure;BME280_temperature;BME280_humidity;BME280_pressure;Samples;Min_cycle;Max_cycle;Signal;HPM_P1;HPM_P2
2022/08/11 00:00:42;;;;;;;;;;;;;;;;;;5016835;28;19914;-27
2022/08/11 00:03:08;;;;;;;;;;;;;;;;;;5016410;28;19913;-27
2022/08/11 00:05:34;;;;;;;;;;;;;;;;;;5016429;28;19970;-27
2022/08/11 00:08:00;;;;;;;;;;;;;;;;;;5016445;28;20345;-27
2022/08/11 00:10:26;;;;;;;;;;;;;;;;;;5016617;28;19913;-27
2022/08/11 00:12:52;;;;;;;;;;;;;;;;;;5016539;28;20237;-27
2022/08/11 00:15:18;;;;;;;;;;;;;;;;;;5016871;28;19909;-27
2022/08/11 00:17:44;;;;;;;;;;;;;;;;;;5016250;28;19913;-27
2022/08/11 00:20:10;;;;;;;;;;;;;;;;;;5016149;28;20340;-27
2022/08/11 00:22:36;;;;;;;;;;;;;;;;;;5016463;28;19997;-27
2022/08/11 00:25:02;;;;;;;;;;;;;;;;;;5016631;28;19913;-27
2022/08/11 00:27:28;;;;;;;;;;;;;;;;;;5016086;28;19924;-27
2022/08/11 00:29:54;;;;;;;;;;;;;;;;;;5016028;28;19910;-26
2022/08/11 00:32:20;;;;;;;;;;;;;;;;;;5017024;28;19991;-27
2022/08/11 00:34:46;;;;;;;;;;;;;;;;;;5015941;28;20364;-27
2022/08/11 00:37:12;;;;;;;;;;;;;;;;;;5015975;28;19909;-27
2022/08/11 00:39:38;;;;;;;;;;;;;;;;;;5016461;28;20341;-27
2022/08/11 00:42:05;;;;;;;;;;;;;;;;;;5015831;28;19920;-27
2022/08/11 00:44:31;;;;;;;;;;;;;;;;;;5016032;28;19917;-27
2022/08/11 00:46:57;;;;;;;;;;;;;;;;;;5015741;28;19925;-27
2022/08/11 00:49:23;;;;;;;;;;;;;;;;;;5016053;28;19910;-27
2022/08/11 00:51:49;;;;;;;;;;;;;;;;;;5015620;28;19968;-27
2022/08/11 00:54:16;;;;;;;;;;;;;;;;;;5016496;28;20004;-27
2022/08/11 00:56:42;;;;;;;;;;;;;;;;;;5015616;28;19913;-27
2022/08/11 00:59:08;;;;;;;;;;;;;;;;;;5015586;28;19910;-27
2022/08/11 01:01:34;;;;;;;;;;;;;;;;;;5015142;28;20245;-27
2022/08/11 01:04:00;;;;;;;;;;;;;;;;;;5015376;28;19925;-27
2022/08/11 01:06:26;;;;;;;;;;;;;;;;;;5015580;28;19913;-27
2022/08/11 01:08:52;;;;;;;;;;;;;;;;;;5015536;28;19929;-27
2022/08/11 01:11:18;;;;;;;;;;;;;;;;;;5015813;28;19914;-27
2022/08/11 01:13:45;;;;;;;;;;;;;;;;;;5015442;28;19920;-27
2022/08/11 01:16:11;;;;;;;;;;;;;;;;;;5015646;28;19914;-27
2022/08/11 01:18:37;;;;;;;;;;;;;;;;;;5015657;28;19917;-27
2022/08/11 01:21:03;;;;;;;;;;;;;;;;;;5015986;28;19977;-26
2022/08/11 01:23:30;;;;;;;;;;;;;;;;;;5015279;28;19917;-27
2022/08/11 01:25:56;;;;;;;;;;;;;;;;;;5015383;28;19909;-27
2022/08/11 01:28:22;;;;;;;;;;;;;;;;;;5015302;28;19939;-27
2022/08/11 01:30:48;;;;;;;;;;;;;;;;;;5015326;28;20040;-27
2022/08/11 01:33:14;;;;;;;;;;;;;;;;;;5015345;28;20372;-27
2022/08/11 01:35:40;;;;;;;;;;;;;;;;;;5015255;28;19914;-27
2022/08/11 01:38:06;;;;;;;;;;;;;;;;;;5015218;28;20012;-27
2022/08/11 01:40:32;;;;;;;;;;;;;;;;;;5015486;28;20007;-27
2022/08/11 01:45:42;;;;;;;;;;;;;;;;;;5015201;28;20252;-27
2022/08/11 01:48:09;;;;;;;;;;;;;;;;;;5014196;28;20272;-27
2022/08/11 01:50:35;;;;;;;;;;;;;;;;;;5015392;28;20214;-27
2022/08/11 01:53:01;;;;;;;;;;;;;;;;;;5014954;28;19925;-26
2022/08/11 01:55:27;;;;;;;;;;;;;;;;;;5015065;28;19921;-27
2022/08/11 01:57:53;;;;;;;;;;;;;;;;;;5015042;28;20008;-27
2022/08/11 02:00:19;;;;;;;;;;;;;;;;;;5015287;28;19955;-27
2022/08/11 02:02:46;;;;;;;;;;;;;;;;;;5014036;28;20294;-27
2022/08/11 02:05:12;;;;;;;;;;;;;;;;;;5015118;28;20040;-27
2022/08/11 02:07:38;;;;;;;;;;;;;;;;;;5014772;28;20016;-27
2022/08/11 02:11:29;;;;;;;;;;;;;;;;;;5015508;28;19960;-27
2022/08/11 02:12:50;;;;;;;;;;;;;;;;;;5015952;28;20020;-27
2022/08/11 02:15:16;;;;;;;;;;;;;;;;;;5019123;28;19941;-27
2022/08/11 02:17:42;;;;;;;;;;;;;;;;;;5018518;28;19967;-27
2022/08/11 02:25:37;;;;;;;;;;;;;;;;;;5018332;28;19980;-26
2022/08/11 02:28:03;;;;;;;;;;;;;;;;;;5018284;28;19921;-27
2022/08/11 02:30:29;;;;;;;;;;;;;;;;;;5018288;28;20013;-27
2022/08/11 02:35:41;;;;;;;;;;;;;;;;;;5018252;28;19917;-27
2022/08/11 02:38:07;;;;;;;;;;;;;;;;;;5018128;28;19921;-27
2022/08/11 02:40:33;;;;;;;;;;;;;;;;;;5018119;28;19909;-27
2022/08/11 02:43:00;;;;;;;;;;;;;;;;;;5018237;28;20028;-27
2022/08/11 02:45:26;;;;;;;;;;;;;;;;;;5017984;28;19913;-27
2022/08/11 02:50:48;;;;;;;;;;;;;;;;;;5017072;28;19913;-27
2022/08/11 02:53:14;;;;;;;;;;;;;;;;;;5018152;28;19915;-27
2022/08/11 02:55:40;;;;;;;;;;;;;;;;;;5018135;28;19935;-27
2022/08/11 02:58:06;;;;;;;;;;;;;;;;;;5018093;28;19919;-27
2022/08/11 03:00:32;;;;;;;;;;;;;;;;;;5018004;28;20310;-27
2022/08/11 03:02:58;;;;;;;;;;;;;;;;;;5017606;28;19914;-27
2022/08/11 03:05:24;;;;;;;;;;;;;;;;;;5017598;28;20367;-27
2022/08/11 03:07:51;;;;;;;;;;;;;;;;;;5017414;28;20344;-27
2022/08/11 03:10:17;;;;;;;;;;;;;;;;;;5018157;28;20016;-27
2022/08/11 03:18:12;;;;;;;;;;;;;;;;;;5017703;28;19924;-27
2022/08/11 03:20:38;;;;;;;;;;;;;;;;;;5017656;28;19910;-27
2022/08/11 03:23:04;;;;;;;;;;;;;;;;;;5017265;28;19914;-27
2022/08/11 03:25:30;;;;;;;;;;;;;;;;;;5016955;28;19928;-27
2022/08/11 03:27:56;;;;;;;;;;;;;;;;;;5017464;28;19918;-27
2022/08/11 03:30:22;;;;;;;;;;;;;;;;;;5017432;28;19910;-27
2022/08/11 03:34:00;;;;;;;;;;;;;;;;;;5017310;28;19968;-27
2022/08/11 03:35:34;;;;;;;;;;;;;;;;;;5016946;28;19909;-27
2022/08/11 03:38:01;;;;;;;;;;;;;;;;;;5017305;28;20260;-27
2022/08/11 03:43:11;;;;;;;;;;;;;;;;;;5016871;28;19983;-27
2022/08/11 03:45:37;;;;;;;;;;;;;;;;;;5017040;28;20299;-27
2022/08/11 03:48:03;;;;;;;;;;;;;;;;;;5017340;28;19999;-27
2022/08/11 03:50:29;;;;;;;;;;;;;;;;;;5016993;28;19932;-27
2022/08/11 03:52:55;;;;;;;;;;;;;;;;;;5017119;28;19913;-26
2022/08/11 03:55:21;;;;;;;;;;;;;;;;;;5016669;28;19909;-27
2022/08/11 03:57:47;;;;;;;;;;;;;;;;;;5016565;28;19913;-27
2022/08/11 04:00:13;;;;;;;;;;;;;;;;;;5016545;28;19984;-27
2022/08/11 04:02:39;;;;;;;;;;;;;;;;;;5017114;28;19996;-27
2022/08/11 04:05:06;;;;;;;;;;;;;;;;;;5015440;28;20233;-27
2022/08/11 04:07:32;;;;;;;;;;;;;;;;;;5016151;28;19967;-27
2022/08/11 04:09:58;;;;;;;;;;;;;;;;;;5016079;28;19914;-27
2022/08/11 04:12:24;;;;;;;;;;;;;;;;;;5016010;28;19913;-27
2022/08/11 04:17:34;;;;;;;;;;;;;;;;;;5016158;28;19975;-27
2022/08/11 04:20:00;;;;;;;;;;;;;;;;;;5016124;28;19914;-27
2022/08/11 04:22:26;;;;;;;;;;;;;;;;;;5016283;28;19913;-28
2022/08/11 04:24:52;;;;;;;;;;;;;;;;;;5015954;28;19914;-26
2022/08/11 04:27:18;;;;;;;;;;;;;;;;;;5016311;28;20060;-26
2022/08/11 04:29:44;;;;;;;;;;;;;;;;;;5015803;28;19946;-26
2022/08/11 04:32:10;;;;;;;;;;;;;;;;;;5015868;28;19924;-26
2022/08/11 04:34:36;;;;;;;;;;;;;;;;;;5016058;28;19963;-27
2022/08/11 04:40:09;;;;;;;;;;;;;;;;;;5014276;28;19914;-26
2022/08/11 04:45:20;;;;;;;;;;;;;;;;;;5015096;28;19980;-27
2022/08/11 05:01:42;;;;;;;;;;;;;;;;;;5015567;28;19920;-26
2022/08/11 05:05:29;;;;;;;;;;;;;;;;;;5015296;28;19917;-26
2022/08/11 05:06:57;;;;;;;;;;;;;;;;;;5015317;28;20336;-26
2022/08/11 05:09:23;;;;;;;;;;;;;;;;;;5015225;28;19929;-26
2022/08/11 05:11:49;;;;;;;;;;;;;;;;;;5015118;28;20260;-26
2022/08/11 05:36:31;;;;;;;;;;;;;;;;;;5015074;28;20004;-27
2022/08/11 05:58:10;;;;;;;;;;;;;;;;;;5019098;28;19967;-26
2022/08/11 06:03:18;;;;;;;;;;;;;;;;;;5362717;22;20251;-33
2022/08/11 06:05:44;;;;;;;;;;;;;;;;;;5018482;28;19918;-34
2022/08/11 06:08:11;;;;;;;;;;;;;;;;;;5018485;28;19976;-33
2022/08/11 06:10:37;;;;;;;;;;;;;;;;;;5018433;28;19939;-31
2022/08/11 06:13:03;;;;;;;;;;;;;;;;;;5018320;28;19914;-32
2022/08/11 06:15:29;;;;;;;;;;;;;;;;;;5018414;28;20320;-33
2022/08/11 06:17:55;;;;;;;;;;;;;;;;;;5018404;28;19944;-32
2022/08/11 06:20:23;;;;;;;;;;;;;;;;;;5018439;28;19988;-32
2022/08/11 06:22:49;;;;;;;;;;;;;;;;;;5018211;28;19959;-32
2022/08/11 06:25:15;;;;;;;;;;;;;;;;;;5018457;28;19924;-33
2022/08/11 06:27:42;;;;;;;;;;;;;;;;;;5018192;28;20415;-33
2022/08/11 06:30:14;;;;;;;;;;;;;;;;;;5018447;28;20256;-33
2022/08/11 06:32:40;;;;;;;;;;;;;;;;;;5018198;28;19933;-33
2022/08/11 06:35:06;;;;;;;;;;;;;;;;;;5018037;28;19910;-32
2022/08/11 06:37:32;;;;;;;;;;;;;;;;;;5016982;28;19922;-33
2022/08/11 06:39:58;;;;;;;;;;;;;;;;;;5016937;28;19910;-32
2022/08/11 06:42:24;;;;;;;;;;;;;;;;;;5016874;28;19920;-34
2022/08/11 06:44:51;;;;;;;;;;;;;;;;;;5017724;28;19988;-32
2022/08/11 06:47:19;;;;;;;;;;;;;;;;;;5018275;28;19992;-32
2022/08/11 06:52:30;;;;;;;;;;;;;;;;;;5017630;28;19975;-32
2022/08/11 06:55:05;;;;;;;;;;;;;;;;;;5017554;28;19988;-32
2022/08/11 07:00:28;;;;;;;;;;;;;;;;;;5016473;28;20007;-33
2022/08/11 07:02:54;;;;;;;;;;;;;;;;;;5017294;28;20063;-32
2022/08/11 07:05:21;;;;;;;;;;;;;;;;;;5017366;28;19913;-33
2022/08/11 07:16:01;;;;;;;;;;;;;;;;;;5017383;28;19921;-33
2022/08/11 07:29:25;;;;;;;;;;;;;;;;;;5017329;28;19927;-33
2022/08/11 07:31:52;;;;;;;;;;;;;;;;;;5016950;28;20344;-30
2022/08/11 07:34:18;;;;;;;;;;;;;;;;;;5017129;28;19917;-32
2022/08/11 07:36:44;;;;;;;;;;;;;;;;;;5017439;28;19921;-31
2022/08/11 07:39:10;;;;;;;;;;;;;;;;;;5016738;28;19913;-32
2022/08/11 07:41:37;;;;;;;;;;;;;;;;;;5017358;28;19913;-32
2022/08/11 07:44:10;;;;;;;;;;;;;;;;;;5016777;28;19928;-32
2022/08/11 07:54:50;;;;;;;;;;;;;;;;;;5016867;28;20000;-33
2022/08/11 08:19:13;;;;;;;;;;;;;;;;;;5016125;28;19990;-32
2022/08/11 08:21:39;;;;;;;;;;;;;;;;;;5016569;28;19913;-31
2022/08/11 08:24:05;;;;;;;;;;;;;;;;;;5016142;28;20240;-31
2022/08/11 08:32:01;;;;;;;;;;;;;;;;;;5015796;28;20310;-32
2022/08/11 08:34:27;;;;;;;;;;;;;;;;;;5015790;28;19987;-32
2022/08/11 08:36:53;;;;;;;;;;;;;;;;;;5016419;28;20008;-31
2022/08/11 08:39:20;;;;;;;;;;;;;;;;;;5015641;28;19928;-31
2022/08/11 08:41:46;;;;;;;;;;;;;;;;;;5015592;28;20425;-31
2022/08/11 08:44:12;;;;;;;;;;;;;;;;;;5016088;28;19926;-31
2022/08/11 08:46:38;;;;;;;;;;;;;;;;;;5015771;28;19913;-32
2022/08/11 08:49:04;;;;;;;;;;;;;;;;;;5016141;28;19917;-31
2022/08/11 08:51:33;;;;;;;;;;;;;;;;;;5015830;28;19917;-31
2022/08/11 08:54:00;;;;;;;;;;;;;;;;;;5015423;28;19913;-31
2022/08/11 08:56:30;;;;;;;;;;;;;;;;;;5015491;28;19913;-31
2022/08/11 08:58:56;;;;;;;;;;;;;;;;;;5015491;28;19913;-31
2022/08/11 09:01:24;;;;;;;;;;;;;;;;;;5015545;28;20260;-31
2022/08/11 09:03:50;;;;;;;;;;;;;;;;;;5015066;28;19926;-30
2022/08/11 09:06:16;;;;;;;;;;;;;;;;;;5015627;28;19920;-32
2022/08/11 09:08:42;;;;;;;;;;;;;;;;;;5015890;28;19952;-31
2022/08/11 09:13:52;;;;;;;;;;;;;;;;;;5015596;28;20016;-31
2022/08/11 09:16:18;;;;;;;;;;;;;;;;;;5015695;28;19937;-31
2022/08/11 09:18:44;;;;;;;;;;;;;;;;;;5015877;28;19914;-31
2022/08/11 09:21:10;;;;;;;;;;;;;;;;;;5015259;28;19937;-31
2022/08/11 09:29:06;;;;;;;;;;;;;;;;;;5015477;28;19925;-32
2022/08/11 09:31:34;;;;;;;;;;;;;;;;;;5015463;28;19909;-32
2022/08/11 09:34:01;;;;;;;;;;;;;;;;;;5014975;28;20000;-31
2022/08/11 09:41:56;;;;;;;;;;;;;;;;;;5015270;28;19956;-33
2022/08/11 09:47:12;;;;;;;;;;;;;;;;;;5015290;28;19920;-31
2022/08/11 09:49:37;;;;;;;;;;;;;;;;;;5014868;28;19914;-31
2022/08/11 09:52:05;;;;;;;;;;;;;;;;;;5014847;28;19936;-31
2022/08/11 09:54:31;;;;;;;;;;;;;;;;;;5015063;28;19914;-31
2022/08/11 09:59:41;;;;;;;;;;;;;;;;;;5014935;28;19921;-31
2022/08/11 10:02:07;;;;;;;;;;;;;;;;;;5014555;28;19933;-31
2022/08/11 10:04:33;;;;;;;;;;;;;;;;;;5015064;28;19925;-32
2022/08/11 10:07:03;;;;;;;;;;;;;;;;;;5013882;28;19929;-32
2022/08/11 10:09:29;;;;;;;;;;;;;;;;;;5015064;28;19913;-31
2022/08/11 10:11:56;;;;;;;;;;;;;;;;;;5014752;28;19979;-31
2022/08/11 10:17:06;;;;;;;;;;;;;;;;;;5014757;28;19983;-31
2022/08/11 10:19:33;;;;;;;;;;;;;;;;;;5014781;28;19914;-32
2022/08/11 10:27:29;;;;;;;;;;;;;;;;;;5014913;28;20332;-31
2022/08/11 10:35:25;;;;;;;;;;;;;;;;;;5018213;28;19924;-32
2022/08/11 10:37:51;;;;;;;;;;;;;;;;;;5018065;28;19909;-32
2022/08/11 10:40:17;;;;;;;;;;;;;;;;;;5017988;28;20035;-32
2022/08/11 10:48:12;;;;;;;;;;;;;;;;;;5017842;28;20009;-31
2022/08/11 10:58:53;;;;;;;;;;;;;;;;;;5017665;28;19924;-32
2022/08/11 11:01:19;;;;;;;;;;;;;;;;;;5017886;28;20012;-32
2022/08/11 11:03:45;;;;;;;;;;;;;;;;;;5016494;28;20364;-32
2022/08/11 11:06:11;;;;;;;;;;;;;;;;;;5016497;28;19909;-32
2022/08/11 11:08:52;;;;;;;;;;;;;;;;;;5017003;28;19921;-32
2022/08/11 11:11:18;;;;;;;;;;;;;;;;;;5016940;28;19968;-32
2022/08/11 11:19:17;;;;;;;;;;;;;;;;;;5016296;28;19991;-32
2022/08/11 11:21:43;;;;;;;;;;;;;;;;;;5016595;28;19916;-30
2022/08/11 11:24:10;;;;;;;;;;;;;;;;;;5015036;28;20352;-31
2022/08/11 11:26:39;;;;;;;;;;;;;;;;;;5016370;28;19913;-31
2022/08/11 11:29:05;;;;;;;;;;;;;;;;;;5016087;28;19914;-31
2022/08/11 11:31:31;;;;;;;;;;;;;;;;;;5016133;28;20237;-31
2022/08/11 11:33:57;;;;;;;;;;;;;;;;;;5016254;28;20364;-31
2022/08/11 11:36:23;;;;;;;;;;;;;;;;;;5016075;28;20075;-32
2022/08/11 11:38:49;;;;;;;;;;;;;;;;;;5016056;28;19924;-31
2022/08/11 11:41:24;;;;;;;;;;;;;;;;;;5016015;28;19937;-32
2022/08/11 11:43:50;;;;;;;;;;;;;;;;;;5015613;28;19914;-32
2022/08/11 11:46:16;;;;;;;;;;;;;;;;;;5015137;28;19916;-32
2022/08/11 11:48:42;;;;;;;;;;;;;;;;;;5015737;28;19964;-32
2022/08/11 11:51:08;;;;;;;;;;;;;;;;;;5015734;28;19909;-32
2022/08/11 11:53:34;;;;;;;;;;;;;;;;;;5015612;28;19913;-32
2022/08/11 11:56:00;;;;;;;;;;;;;;;;;;5015602;28;19909;-32
2022/08/11 12:01:18;;;;;;;;;;;;;;;;;;5015451;28;19916;-32
2022/08/11 12:03:45;;;;;;;;;;;;;;;;;;4944553;28;2037128;-32
2022/08/11 12:06:13;;;;;;;;;;;;;;;;;;5016595;28;20344;-32
2022/08/11 12:08:39;;;;;;;;;;;;;;;;;;5016271;28;19968;-31
2022/08/11 12:13:50;;;;;;;;;;;;;;;;;;5016118;28;20268;-32
2022/08/11 12:16:16;;;;;;;;;;;;;;;;;;5016219;28;19910;-32
2022/08/11 12:18:42;;;;;;;;;;;;;;;;;;5016093;28;20427;-32
2022/08/11 12:21:08;;;;;;;;;;;;;;;;;;5016037;28;19909;-31
2022/08/11 12:29:03;;;;;;;;;;;;;;;;;;5015847;28;19920;-32
2022/08/11 12:31:30;;;;;;;;;;;;;;;;;;5016117;28;19917;-32
2022/08/11 12:33:55;;;;;;;;;;;;;;;;;;5015721;28;19918;-31
2022/08/11 12:36:21;;;;;;;;;;;;;;;;;;5015775;28;20321;-32
2022/08/11 12:38:47;;;;;;;;;;;;;;;;;;5015807;28;20288;-32
2022/08/11 12:46:43;;;;;;;;;;;;;;;;;;5015921;28;20379;-30
2022/08/11 12:52:00;;;;;;;;;;;;;;;;;;5015362;28;20004;-31
2022/08/11 12:54:26;;;;;;;;;;;;;;;;;;5015691;28;20276;-31
2022/08/11 13:05:06;;;;;;;;;;;;;;;;;;5015358;28;19948;-30
2022/08/11 13:07:32;;;;;;;;;;;;;;;;;;5015368;28;20264;-31
2022/08/11 13:09:58;;;;;;;;;;;;;;;;;;5015506;28;19914;-31
2022/08/11 13:15:09;;;;;;;;;;;;;;;;;;5015670;28;19920;-31
2022/08/11 13:17:35;;;;;;;;;;;;;;;;;;5015361;28;20008;-32
2022/08/11 13:20:01;;;;;;;;;;;;;;;;;;5015325;28;20251;-31
2022/08/11 13:22:27;;;;;;;;;;;;;;;;;;5015428;28;19925;-31
2022/08/11 13:24:56;;;;;;;;;;;;;;;;;;5015237;28;20337;-30
2022/08/11 13:27:22;;;;;;;;;;;;;;;;;;5015813;28;20008;-30
2022/08/11 13:29:48;;;;;;;;;;;;;;;;;;5015226;28;20368;-31
2022/08/11 13:32:17;;;;;;;;;;;;;;;;;;5015496;28;20356;-31
2022/08/11 13:34:43;;;;;;;;;;;;;;;;;;5015160;28;19921;-31
2022/08/11 13:37:09;;;;;;;;;;;;;;;;;;5015116;28;19924;-31
2022/08/11 13:39:35;;;;;;;;;;;;;;;;;;5015375;28;19909;-31
2022/08/11 13:42:01;;;;;;;;;;;;;;;;;;5015268;28;20237;-30
2022/08/11 13:44:27;;;;;;;;;;;;;;;;;;5014986;28;19921;-31
2022/08/11 13:46:54;;;;;;;;;;;;;;;;;;5015111;28;20371;-31
2022/08/11 13:49:20;;;;;;;;;;;;;;;;;;5014954;28;19957;-31
2022/08/11 13:51:46;;;;;;;;;;;;;;;;;;5015183;28;19959;-31
2022/08/11 13:54:12;;;;;;;;;;;;;;;;;;5015147;28;19996;-31
2022/08/11 13:56:41;;;;;;;;;;;;;;;;;;5015251;28;20319;-31
2022/08/11 13:59:07;;;;;;;;;;;;;;;;;;5014863;28;19914;-31
2022/08/11 14:01:33;;;;;;;;;;;;;;;;;;5015053;28;19913;-31
2022/08/11 14:03:59;;;;;;;;;;;;;;;;;;5014680;28;20095;-31
2022/08/11 14:06:25;;;;;;;;;;;;;;;;;;5014953;28;19935;-31
2022/08/11 14:08:52;;;;;;;;;;;;;;;;;;5016484;28;20012;-31
2022/08/11 14:14:02;;;;;;;;;;;;;;;;;;5018510;28;20383;-31
2022/08/11 14:16:28;;;;;;;;;;;;;;;;;;5018769;28;19910;-31
2022/08/11 14:18:54;;;;;;;;;;;;;;;;;;5018785;28;19914;-32
2022/08/11 14:24:05;;;;;;;;;;;;;;;;;;5018361;28;19924;-31
2022/08/11 14:26:37;;;;;;;;;;;;;;;;;;5018381;28;20275;-31
2022/08/11 14:29:03;;;;;;;;;;;;;;;;;;5018656;28;19921;-31
2022/08/11 14:31:29;;;;;;;;;;;;;;;;;;5017318;28;20372;-30
2022/08/11 14:33:55;;;;;;;;;;;;;;;;;;5018126;28;19944;-31
2022/08/11 14:36:21;;;;;;;;;;;;;;;;;;5018357;28;19913;-32
2022/08/11 14:38:47;;;;;;;;;;;;;;;;;;5018576;28;19924;-32
2022/08/11 14:49:28;;;;;;;;;;;;;;;;;;5017882;28;19971;-32
2022/08/11 14:51:54;;;;;;;;;;;;;;;;;;5017786;28;19910;-32
2022/08/11 14:57:04;;;;;;;;;;;;;;;;;;5017753;28;20301;-31
2022/08/11 14:59:30;;;;;;;;;;;;;;;;;;5017514;28;19924;-31
2022/08/11 15:04:41;;;;;;;;;;;;;;;;;;5017681;28;20062;-31
2022/08/11 15:07:09;;;;;;;;;;;;;;;;;;5017757;28;20341;-31
2022/08/11 15:09:35;;;;;;;;;;;;;;;;;;5017760;28;20414;-32
2022/08/11 15:12:17;;;;;;;;;;;;;;;;;;5017820;28;19910;-32
2022/08/11 15:17:27;;;;;;;;;;;;;;;;;;5017461;28;19920;-32
2022/08/11 15:25:22;;;;;;;;;;;;;;;;;;5017622;28;19923;-32
2022/08/11 15:38:46;;;;;;;;;;;;;;;;;;5017261;28;19971;-32
2022/08/11 15:46:41;;;;;;;;;;;;;;;;;;5016926;28;19925;-31
2022/08/11 15:49:07;;;;;;;;;;;;;;;;;;5015688;28;19913;-30
2022/08/11 15:51:33;;;;;;;;;;;;;;;;;;5017283;28;19910;-31
2022/08/11 15:53:59;;;;;;;;;;;;;;;;;;5016586;28;19917;-31
2022/08/11 15:56:25;;;;;;;;;;;;;;;;;;5016698;28;20016;-31
2022/08/11 16:04:23;;;;;;;;;;;;;;;;;;5016275;28;19952;-31
2022/08/11 16:06:49;;;;;;;;;;;;;;;;;;5017092;28;19918;-30
2022/08/11 16:09:15;;;;;;;;;;;;;;;;;;5016376;28;19913;-31
2022/08/11 16:11:41;;;;;;;;;;;;;;;;;;5016515;28;20008;-31
2022/08/11 16:16:52;;;;;;;;;;;;;;;;;;5016636;28;19975;-30
2022/08/11 16:19:18;;;;;;;;;;;;;;;;;;5016307;28;19959;-31
2022/08/11 16:21:44;;;;;;;;;;;;;;;;;;5016152;28;20340;-31
2022/08/11 16:24:10;;;;;;;;;;;;;;;;;;5015980;28;19917;-31
2022/08/11 16:26:37;;;;;;;;;;;;;;;;;;5016061;28;19910;-31
2022/08/11 16:29:02;;;;;;;;;;;;;;;;;;5016381;28;19913;-31
2022/08/11 16:31:28;;;;;;;;;;;;;;;;;;5015938;28;20345;-32
2022/08/11 16:33:54;;;;;;;;;;;;;;;;;;5015996;28;20345;-31
2022/08/11 16:39:05;;;;;;;;;;;;;;;;;;5015992;28;19929;-32
2022/08/11 16:47:00;;;;;;;;;;;;;;;;;;5016048;28;19929;-30
2022/08/11 16:49:26;;;;;;;;;;;;;;;;;;5016537;28;19927;-31
2022/08/11 16:51:52;;;;;;;;;;;;;;;;;;5015590;28;20000;-31
2022/08/11 16:54:18;;;;;;;;;;;;;;;;;;5014750;28;20264;-31
2022/08/11 16:56:44;;;;;;;;;;;;;;;;;;5016142;28;19909;-31
2022/08/11 16:59:13;;;;;;;;;;;;;;;;;;5015853;28;19914;-31
2022/08/11 17:01:39;;;;;;;;;;;;;;;;;;5015482;28;19914;-31
2022/08/11 17:18:38;;;;;;;;;;;;;;;;;;5015333;28;19924;-32
2022/08/11 17:21:01;;;;;;;;;;;;;;;;;;5015294;28;20354;-32
2022/08/11 17:23:45;;;;;;;;;;;;;;;;;;5015155;28;19999;-32
2022/08/11 17:26:11;;;;;;;;;;;;;;;;;;5015474;28;20010;-31
2022/08/11 17:28:37;;;;;;;;;;;;;;;;;;5015259;28;20353;-32
2022/08/11 17:36:50;;;;;;;;;;;;;;;;;;5015249;28;19924;-31
2022/08/11 17:39:16;;;;;;;;;;;;;;;;;;5015138;28;19913;-31
2022/08/11 17:49:56;;;;;;;;;;;;;;;;;;5019169;28;19920;-31
2022/08/11 18:00:35;;;;;;;;;;;;;;;;;;5018965;28;20347;-31
2022/08/11 18:05:47;;;;;;;;;;;;;;;;;;5018841;28;19924;-31
